Time;durP1;ratioP1;P1;durP2;ratioP2;P2;SDS_P1;SDS_P2;PMS_P1;PMS_P2;Temp;Humidity;BMP_temperature;BMP_pressure;BME280_temperature;BME280_humidity;BME280_pressure;Samples;Min_cycle;Max_cycle;Signal;HPM_P1;HPM_P2
2022/04/02 00:00:19;;;;;;;;;;;;;;;1.83;100.00;101744.44;5134425;28;19915;-68
2022/04/02 00:02:47;;;;;;;;;;;;;;;1.79;100.00;101740.91;5134449;28;19915;-68
2022/04/02 00:05:12;;;;;;;;;;;;;;;1.62;100.00;101736.41;5116052;28;20006;-69
2022/04/02 00:07:38;;;;;;;;;;;;;;;1.56;100.00;101737.22;5134509;28;19955;-68
2022/04/02 00:10:05;;;;;;;;;;;;;;;1.35;100.00;101732.72;5134556;28;19924;-68
2022/04/02 00:12:31;;;;;;;;;;;;;;;1.21;100.00;101739.53;5135159;28;19963;-68
2022/04/02 00:14:56;;;;;;;;;;;;;;;1.11;100.00;101731.59;5135000;28;19986;-68
2022/04/02 00:17:21;;;;;;;;;;;;;;;0.95;100.00;101721.84;5134142;28;19915;-69
2022/04/02 00:19:47;;;;;;;;;;;;;;;0.80;100.00;101729.53;5115543;28;19963;-69
2022/04/02 00:22:12;;;;;;;;;;;;;;;0.63;100.00;101725.88;5134181;28;20377;-69
2022/04/02 00:24:38;;;;;;;;;;;;;;;0.59;100.00;101726.69;5134029;28;20396;-69
2022/04/02 00:27:03;;;;;;;;;;;;;;;0.59;100.00;101726.69;5134133;28;20298;-70
2022/04/02 00:29:29;;;;;;;;;;;;;;;0.62;100.00;101724.97;5134153;28;20297;-69
2022/04/02 00:31:54;;;;;;;;;;;;;;;0.68;100.00;101724.19;5115863;28;20330;-69
2022/04/02 00:34:19;;;;;;;;;;;;;;;0.79;100.00;101730.41;5136396;27;19916;-69
2022/04/02 00:36:45;;;;;;;;;;;;;;;0.87;100.00;101727.00;5138034;27;19923;-69
2022/04/02 00:39:10;;;;;;;;;;;;;;;0.97;100.00;101735.81;5137624;27;20282;-70
2022/04/02 00:41:35;;;;;;;;;;;;;;;1.14;100.00;101736.84;5137697;27;19922;-69
2022/04/02 00:44:07;;;;;;;;;;;;;;;1.18;100.00;101736.91;5137665;27;19915;-69
2022/04/02 00:46:32;;;;;;;;;;;;;;;1.21;100.00;101736.06;5137551;27;19915;-69
2022/04/02 00:48:58;;;;;;;;;;;;;;;1.35;100.00;101739.69;5137513;27;20457;-70
2022/04/02 00:51:41;;;;;;;;;;;;;;;1.58;100.00;101735.50;5137544;27;20413;-69
2022/04/02 00:54:08;;;;;;;;;;;;;;;1.60;100.00;101733.78;5137869;27;19916;-69
2022/04/02 00:56:44;;;;;;;;;;;;;;;1.54;100.00;101738.97;5118997;27;19916;-69
2022/04/02 00:59:10;;;;;;;;;;;;;;;1.64;100.00;101735.56;5118828;27;19954;-69
2022/04/02 01:01:35;;;;;;;;;;;;;;;1.66;100.00;101741.69;5137176;27;19923;-69
2022/04/02 01:04:02;;;;;;;;;;;;;;;1.68;100.00;101747.81;5137242;27;19916;-69
2022/04/02 01:06:27;;;;;;;;;;;;;;;1.73;100.00;101751.34;5118549;27;20010;-69
2022/04/02 01:08:53;;;;;;;;;;;;;;;1.88;100.00;101742.72;5137706;27;19988;-69
2022/04/02 01:11:18;;;;;;;;;;;;;;;1.91;100.00;101754.09;5116314;27;19920;-68
2022/04/02 01:13:44;;;;;;;;;;;;;;;1.89;100.00;101752.34;5115478;27;19968;-69
2022/04/02 01:16:09;;;;;;;;;;;;;;;1.88;100.00;101747.94;5132505;27;19931;-68
2022/04/02 01:18:34;;;;;;;;;;;;;;;1.91;100.00;101761.09;5118427;27;19968;-69
2022/04/02 01:20:59;;;;;;;;;;;;;;;2.00;100.00;101750.66;5137023;27;19919;-68
2022/04/02 01:23:29;;;;;;;;;;;;;;;1.97;100.00;101748.88;5136970;27;20014;-68
2022/04/02 01:25:55;;;;;;;;;;;;;;;1.94;100.00;101755.88;5137545;27;20014;-68
2022/04/02 01:28:20;;;;;;;;;;;;;;;2.09;100.00;101746.38;5136930;27;19962;-68
2022/04/02 01:30:45;;;;;;;;;;;;;;;2.12;100.00;101749.00;5118539;27;19915;-68
2022/04/02 01:33:11;;;;;;;;;;;;;;;2.09;100.00;101750.72;5118687;27;19915;-69
2022/04/02 01:35:36;;;;;;;;;;;;;;;2.05;100.00;101760.28;5118750;27;19969;-70
2022/04/02 01:38:01;;;;;;;;;;;;;;;2.02;100.00;101757.66;5136975;27;20055;-69
2022/04/02 01:40:26;;;;;;;;;;;;;;;1.99;100.00;101754.13;5137010;27;19998;-69
2022/04/02 01:42:52;;;;;;;;;;;;;;;1.91;100.00;101755.84;5136824;27;19915;-69
2022/04/02 01:45:17;;;;;;;;;;;;;;;1.98;100.00;101750.66;5118134;27;19924;-69
2022/04/02 01:47:42;;;;;;;;;;;;;;;1.97;100.00;101758.50;5118238;27;20274;-70
2022/04/02 01:50:09;;;;;;;;;;;;;;;1.82;100.00;101764.50;5136396;27;19955;-69
2022/04/02 01:52:34;;;;;;;;;;;;;;;1.86;100.00;101761.03;5117984;27;19919;-70
2022/04/02 01:55:00;;;;;;;;;;;;;;;1.76;100.00;101763.59;5117929;27;19930;-69
2022/04/02 01:57:25;;;;;;;;;;;;;;;1.53;100.00;101758.16;5118356;27;19915;-69
2022/04/02 01:59:50;;;;;;;;;;;;;;;1.32;100.00;101764.06;5136872;27;19929;-68
2022/04/02 02:02:16;;;;;;;;;;;;;;;1.21;100.00;101765.72;5136438;27;20006;-68
2022/04/02 02:04:41;;;;;;;;;;;;;;;1.09;100.00;101760.38;5117892;27;19923;-67
2022/04/02 02:07:06;;;;;;;;;;;;;;;1.03;100.00;101767.25;5136048;27;19916;-68
2022/04/02 02:09:33;;;;;;;;;;;;;;;0.90;100.00;101766.25;5136200;27;19950;-68
2022/04/02 02:11:58;;;;;;;;;;;;;;;0.74;100.00;101764.31;5117890;27;19923;-69
2022/04/02 02:14:23;;;;;;;;;;;;;;;0.82;100.00;101769.66;5100658;27;19920;-69
2022/04/02 02:16:49;;;;;;;;;;;;;;;0.68;100.00;101759.03;5136229;27;19923;-68
2022/04/02 02:19:14;;;;;;;;;;;;;;;0.74;100.00;101763.47;5136151;27;19922;-69
2022/04/02 02:21:40;;;;;;;;;;;;;;;0.61;100.00;101762.44;5135295;27;19923;-69
2022/04/02 02:24:06;;;;;;;;;;;;;;;0.49;100.00;101772.72;5135812;27;19919;-69
2022/04/02 02:26:31;;;;;;;;;;;;;;;0.38;100.00;101778.69;5113336;28;19916;-68
2022/04/02 02:29:09;;;;;;;;;;;;;;;0.36;100.00;101775.19;5133188;27;19976;-68
2022/04/02 02:31:35;;;;;;;;;;;;;;;0.27;100.00;101780.28;5117539;27;19960;-68
2022/04/02 02:40:06;;;;;;;;;;;;;;;0.14;100.00;101794.03;5135861;27;19960;-68
2022/04/02 02:42:31;;;;;;;;;;;;;;;0.05;100.00;101799.13;5135688;27;20331;-68
2022/04/02 02:44:57;;;;;;;;;;;;;;;-0.05;100.00;101806.78;5135542;27;19938;-68
2022/04/02 02:47:22;;;;;;;;;;;;;;;0.00;100.00;101805.13;5117058;27;19915;-68
2022/04/02 02:49:48;;;;;;;;;;;;;;;0.19;100.00;101806.28;5135444;27;20017;-69
2022/04/02 02:52:13;;;;;;;;;;;;;;;0.08;100.00;101810.47;5135438;27;19922;-69
2022/04/02 02:54:38;;;;;;;;;;;;;;;-0.04;100.00;101810.28;5116933;27;19938;-68
2022/04/02 02:57:04;;;;;;;;;;;;;;;-0.13;100.00;101804.94;5134918;27;20392;-69
2022/04/02 02:59:29;;;;;;;;;;;;;;;-0.14;100.00;101819.69;5116847;27;19980;-69
2022/04/02 03:01:54;;;;;;;;;;;;;;;-0.24;100.00;101820.41;5135227;27;19922;-69
2022/04/02 03:04:19;;;;;;;;;;;;;;;-0.29;100.00;101811.63;5116778;27;19922;-68
2022/04/02 03:06:45;;;;;;;;;;;;;;;-0.13;100.00;101817.97;5135017;27;20275;-68
2022/04/02 03:09:10;;;;;;;;;;;;;;;-0.16;100.00;101813.56;5135181;27;19922;-69
2022/04/02 03:11:36;;;;;;;;;;;;;;;-0.07;100.00;101815.47;5135301;27;19920;-68
2022/04/02 03:14:02;;;;;;;;;;;;;;;-0.17;100.00;101819.66;5134967;27;19967;-68
2022/04/02 03:16:27;;;;;;;;;;;;;;;-0.24;100.00;101823.00;5135041;27;19923;-69
2022/04/02 03:18:52;;;;;;;;;;;;;;;-0.34;100.00;101815.00;5134800;27;19915;-68
2022/04/02 03:21:18;;;;;;;;;;;;;;;-0.41;100.00;101821.00;5116666;28;19949;-68
2022/04/02 03:23:43;;;;;;;;;;;;;;;-0.30;100.00;101819.44;5116510;27;19923;-69
2022/04/02 03:26:08;;;;;;;;;;;;;;;-0.37;100.00;101828.91;5116588;27;19939;-69
2022/04/02 03:28:33;;;;;;;;;;;;;;;-0.35;100.00;101821.94;5135008;27;19916;-68
2022/04/02 03:30:58;;;;;;;;;;;;;;;-0.41;100.00;101821.00;5134752;28;19922;-68
2022/04/02 03:33:24;;;;;;;;;;;;;;;-0.50;100.00;101821.69;5116305;28;19923;-68
2022/04/02 03:35:49;;;;;;;;;;;;;;;-0.50;100.00;101828.63;5116324;28;19988;-68
2022/04/02 03:38:14;;;;;;;;;;;;;;;-0.40;100.00;101818.41;5116403;28;20385;-68
2022/04/02 03:40:41;;;;;;;;;;;;;;;-0.53;100.00;101823.38;5116438;28;19916;-69
2022/04/02 03:43:06;;;;;;;;;;;;;;;-0.57;100.00;101817.22;5135298;28;19998;-68
2022/04/02 03:45:31;;;;;;;;;;;;;;;-0.60;100.00;101819.78;5116765;28;20322;-68
2022/04/02 03:47:57;;;;;;;;;;;;;;;-0.65;100.00;101826.66;5134453;28;20013;-69
2022/04/02 03:50:22;;;;;;;;;;;;;;;-0.56;100.00;101832.03;5105620;28;20379;-68
2022/04/02 03:52:47;;;;;;;;;;;;;;;-0.62;100.00;101837.16;5114323;28;20282;-69
2022/04/02 03:55:12;;;;;;;;;;;;;;;-0.69;100.00;101835.25;5114289;28;20276;-68
2022/04/02 03:57:39;;;;;;;;;;;;;;;-0.66;100.00;101840.53;5114301;28;19916;-68
2022/04/02 04:00:06;;;;;;;;;;;;;;;-0.61;100.00;101849.31;5114511;28;19916;-69
2022/04/02 04:02:32;;;;;;;;;;;;;;;-0.63;100.00;101843.19;5114230;28;19923;-68
2022/04/02 04:04:59;;;;;;;;;;;;;;;-0.66;100.00;101850.97;5112470;28;20456;-68
2022/04/02 04:07:24;;;;;;;;;;;;;;;-0.64;100.00;101846.66;5114371;28;19962;-69
2022/04/02 04:09:49;;;;;;;;;;;;;;;-0.60;100.00;101858.91;5117871;28;19916;-68
2022/04/02 04:12:17;;;;;;;;;;;;;;;-0.70;100.00;101862.22;5117928;28;19936;-69
2022/04/02 04:14:42;;;;;;;;;;;;;;;-0.80;100.00;101870.69;5117931;28;19916;-68
2022/04/02 04:17:07;;;;;;;;;;;;;;;-0.72;100.00;101876.06;5099585;28;19923;-68
2022/04/02 04:19:33;;;;;;;;;;;;;;;-0.69;100.00;101865.66;5099358;28;19993;-68
2022/04/02 04:21:58;;;;;;;;;;;;;;;-0.67;100.00;101884.84;5117707;28;20431;-69
2022/04/02 04:24:23;;;;;;;;;;;;;;;-0.77;100.00;101886.41;5099397;28;19964;-69
2022/04/02 04:26:48;;;;;;;;;;;;;;;-0.70;100.00;101888.28;5099322;28;20335;-68
2022/04/02 04:29:13;;;;;;;;;;;;;;;-0.74;100.00;101894.28;5117808;28;19916;-68
2022/04/02 04:31:39;;;;;;;;;;;;;;;-0.70;100.00;101919.59;5099162;28;19959;-68
2022/04/02 04:34:04;;;;;;;;;;;;;;;-0.74;100.00;101920.38;5117800;28;20315;-68
2022/04/02 04:36:30;;;;;;;;;;;;;;;-0.74;100.00;101924.72;5107319;28;19916;-68
2022/04/02 04:38:56;;;;;;;;;;;;;;;-0.72;100.00;101929.09;5117784;28;19922;-68
2022/04/02 04:41:22;;;;;;;;;;;;;;;-0.77;100.00;101935.94;5120931;27;19915;-68
2022/04/02 04:43:50;;;;;;;;;;;;;;;-0.72;100.00;101938.66;5119532;27;20279;-69
2022/04/02 04:46:16;;;;;;;;;;;;;;;-0.70;100.00;101936.97;5138144;27;19915;-68
2022/04/02 04:48:43;;;;;;;;;;;;;;;-0.81;100.00;101944.56;5137712;27;19961;-68
2022/04/02 04:51:09;;;;;;;;;;;;;;;-0.78;100.00;101949.84;5119290;27;19915;-68
2022/04/02 04:53:34;;;;;;;;;;;;;;;-0.88;100.00;101949.63;5119519;27;20366;-69
2022/04/02 04:55:59;;;;;;;;;;;;;;;-0.95;100.00;101953.84;5119098;27;19916;-68
2022/04/02 04:58:25;;;;;;;;;;;;;;;-0.79;100.00;101958.50;5138294;27;20002;-68
2022/04/02 05:00:50;;;;;;;;;;;;;;;-0.82;100.00;101958.44;5128534;27;19919;-69
2022/04/02 05:03:15;;;;;;;;;;;;;;;-0.89;100.00;101961.78;5118784;27;20010;-68
2022/04/02 05:05:41;;;;;;;;;;;;;;;-0.96;100.00;101964.25;5114987;27;19919;-68
2022/04/02 05:08:06;;;;;;;;;;;;;;;-1.02;100.00;101969.28;5137272;27;19920;-68
2022/04/02 05:10:32;;;;;;;;;;;;;;;-1.02;100.00;101977.13;5118954;27;19916;-68
2022/04/02 05:12:57;;;;;;;;;;;;;;;-1.08;100.00;101980.47;5118876;27;19926;-68
2022/04/02 05:15:23;;;;;;;;;;;;;;;-1.05;100.00;101990.97;5115744;27;19961;-68
2022/04/02 05:17:48;;;;;;;;;;;;;;;-0.88;100.00;101992.22;5118764;27;20381;-68
2022/04/02 05:20:17;;;;;;;;;;;;;;;-0.98;100.00;101981.56;5115070;27;20018;-69
2022/04/02 05:22:43;;;;;;;;;;;;;;;-1.03;100.00;101991.91;5130054;27;19923;-67
2022/04/02 05:25:08;;;;;;;;;;;;;;;-1.02;100.00;101990.16;5132220;27;19990;-69
2022/04/02 05:27:33;;;;;;;;;;;;;;;-0.95;100.00;102000.78;5133839;27;19973;-68
2022/04/02 05:30:00;;;;;;;;;;;;;;;-0.94;100.00;101993.81;5132951;27;19955;-68
2022/04/02 05:32:25;;;;;;;;;;;;;;;-0.90;100.00;102008.69;5116559;27;19922;-68
2022/04/02 05:34:51;;;;;;;;;;;;;;;-0.97;100.00;102010.28;5100195;27;19923;-67
2022/04/02 05:37:16;;;;;;;;;;;;;;;-0.96;100.00;102014.63;5135380;27;19924;-67
2022/04/02 05:39:41;;;;;;;;;;;;;;;-0.99;100.00;102014.56;5114066;27;20285;-68
2022/04/02 05:42:07;;;;;;;;;;;;;;;-0.89;100.00;102019.16;5114955;27;19923;-66
2022/04/02 05:44:32;;;;;;;;;;;;;;;-0.84;100.00;102017.53;5113971;27;19920;-68
2022/04/02 05:46:57;;;;;;;;;;;;;;;-0.85;100.00;102026.19;5116428;27;19924;-67
2022/04/02 05:49:22;;;;;;;;;;;;;;;-0.82;100.00;102031.47;5114910;27;20014;-68
2022/04/02 05:51:48;;;;;;;;;;;;;;;-0.86;100.00;102031.38;5114971;27;19923;-69
2022/04/02 05:54:14;;;;;;;;;;;;;;;-0.89;100.00;102037.41;5117426;27;19922;-69
2022/04/02 05:56:39;;;;;;;;;;;;;;;-0.86;100.00;102034.88;5134667;27;20370;-70
2022/04/02 05:59:05;;;;;;;;;;;;;;;-0.90;100.00;102037.38;5115293;27;19916;-69
2022/04/02 06:01:35;;;;;;;;;;;;;;;-0.83;100.00;102045.38;5135533;27;19915;-70
2022/04/02 06:04:01;;;;;;;;;;;;;;;-0.86;100.00;102045.28;5134016;27;19916;-68
2022/04/02 06:06:26;;;;;;;;;;;;;;;-0.78;100.00;102051.56;5132901;27;19934;-69
2022/04/02 06:08:51;;;;;;;;;;;;;;;-0.68;100.00;102065.69;5132081;27;19938;-70
2022/04/02 06:11:17;;;;;;;;;;;;;;;-0.54;100.00;102065.16;5111917;27;19920;-68
2022/04/02 06:13:42;;;;;;;;;;;;;;;-0.24;100.00;102070.13;5133242;27;19915;-69
2022/04/02 06:16:08;;;;;;;;;;;;;;;-0.12;100.00;102075.59;5116238;27;19916;-71
2022/04/02 06:18:33;;;;;;;;;;;;;;;0.16;100.00;102084.84;5116374;27;20039;-70
2022/04/02 06:21:02;;;;;;;;;;;;;;;0.33;100.00;102079.06;5128764;27;19919;-69
2022/04/02 06:23:27;;;;;;;;;;;;;;;0.63;100.00;102077.00;5134864;27;20381;-69
2022/04/02 06:25:52;;;;;;;;;;;;;;;0.63;100.00;102076.16;5131755;27;19965;-68
2022/04/02 06:28:18;;;;;;;;;;;;;;;0.63;100.00;102076.16;5130140;27;19915;-69
2022/04/02 06:30:45;;;;;;;;;;;;;;;0.53;100.00;102072.50;5103397;28;20292;-69
2022/04/02 06:33:10;;;;;;;;;;;;;;;0.56;100.00;102076.88;5131409;27;20328;-69
2022/04/02 06:35:35;;;;;;;;;;;;;;;0.50;100.00;102064.59;5115974;27;19919;-68
2022/04/02 06:38:01;;;;;;;;;;;;;;;0.52;100.00;102062.88;5134496;27;20430;-69
2022/04/02 06:40:55;;;;;;;;;;;;;;;0.60;100.00;102066.50;5135167;27;19987;-69
2022/04/02 06:43:20;;;;;;;;;;;;;;;0.56;100.00;102067.31;5114868;28;19922;-69
2022/04/02 06:45:45;;;;;;;;;;;;;;;0.71;100.00;102067.56;5113374;28;19920;-69
2022/04/02 06:48:11;;;;;;;;;;;;;;;0.88;100.00;102073.06;5096328;28;19938;-68
2022/04/02 06:50:36;;;;;;;;;;;;;;;0.96;100.00;102061.00;5127249;27;20401;-68
2022/04/02 06:53:01;;;;;;;;;;;;;;;1.03;100.00;102068.06;5135065;27;19915;-69
2022/04/02 06:55:27;;;;;;;;;;;;;;;1.16;100.00;102064.78;5135357;27;19968;-68
2022/04/02 06:57:53;;;;;;;;;;;;;;;1.19;100.00;102065.72;5132050;27;20002;-68
2022/04/02 07:00:19;;;;;;;;;;;;;;;1.46;100.00;102062.63;5135021;27;19923;-68
2022/04/02 07:02:44;;;;;;;;;;;;;;;1.55;100.00;102057.50;5135093;27;19915;-69
2022/04/02 07:05:10;;;;;;;;;;;;;;;1.62;100.00;102058.44;5116589;27;20044;-69
2022/04/02 07:07:36;;;;;;;;;;;;;;;1.75;100.00;102056.00;5134807;27;19915;-69
2022/04/02 07:10:03;;;;;;;;;;;;;;;1.84;100.00;102052.63;5134997;27;19923;-69
2022/04/02 07:12:28;;;;;;;;;;;;;;;1.84;100.00;102050.88;5134953;27;20282;-69
2022/04/02 07:14:53;;;;;;;;;;;;;;;2.03;100.00;102050.25;5134768;27;19949;-68
2022/04/02 07:17:19;;;;;;;;;;;;;;;2.13;100.00;102045.97;5116229;27;19916;-68
2022/04/02 07:19:45;;;;;;;;;;;;;;;2.24;100.00;102039.13;5116617;27;19923;-71
2022/04/02 07:22:10;;;;;;;;;;;;;;;2.31;100.00;102035.66;5117692;28;20405;-73
2022/04/02 07:24:39;;;;;;;;;;;;;;;2.29;100.00;102034.78;5113369;28;19947;-70
2022/04/02 07:27:04;;;;;;;;;;;;;;;2.36;100.00;102032.25;5136124;27;20294;-69
2022/04/02 07:29:31;;;;;;;;;;;;;;;2.43;100.00;102031.41;5116248;28;19911;-70
2022/04/02 07:31:56;;;;;;;;;;;;;;;2.43;100.00;102020.94;5135703;28;19919;-70
2022/04/02 07:34:21;;;;;;;;;;;;;;;2.48;100.00;102019.25;5116268;28;19922;-69
2022/04/02 07:36:59;;;;;;;;;;;;;;;2.57;100.00;102021.06;5116252;28;19916;-69
2022/04/02 07:39:27;;;;;;;;;;;;;;;2.58;100.00;102021.09;5116358;28;19922;-69
2022/04/02 07:42:07;;;;;;;;;;;;;;;2.74;100.00;102022.09;5134901;27;19923;-69
2022/04/02 07:44:41;;;;;;;;;;;;;;;2.64;100.00;102015.88;5120585;27;20006;-69
2022/04/02 07:47:10;;;;;;;;;;;;;;;2.69;100.00;102008.03;5138884;27;20358;-69
2022/04/02 07:49:39;;;;;;;;;;;;;;;2.78;100.00;102009.00;5138322;27;20389;-70
2022/04/02 07:52:05;;;;;;;;;;;;;;;2.86;100.00;102015.19;5115933;28;20018;-69
2022/04/02 07:54:37;;;;;;;;;;;;;;;2.96;100.00;102009.09;5117914;28;20414;-69
2022/04/02 07:57:03;;;;;;;;;;;;;;;2.85;100.00;102007.31;5100555;27;19920;-70
2022/04/02 07:59:34;;;;;;;;;;;;;;;3.01;100.00;102007.41;5120793;27;19973;-69
2022/04/02 08:02:00;;;;;;;;;;;;;;;3.17;100.00;102007.50;5117911;28;20103;-76
2022/04/02 08:04:26;;;;;;;;;;;;;;;3.11;100.00;102009.22;5106014;28;19920;-70
2022/04/02 08:06:52;;;;;;;;;;;;;;;3.25;100.00;102011.91;5114788;27;20070;-69
2022/04/02 08:09:19;;;;;;;;;;;;;;;3.43;100.00;102005.88;5118146;27;20263;-69
2022/04/02 08:11:45;;;;;;;;;;;;;;;3.56;100.00;102008.56;5099718;28;19951;-69
2022/04/02 08:14:11;;;;;;;;;;;;;;;4.17;100.00;102005.28;5117780;28;19922;-70
2022/04/02 08:16:42;;;;;;;;;;;;;;;4.39;100.00;102006.19;5117574;28;19966;-70
2022/04/02 08:19:08;;;;;;;;;;;;;;;4.41;100.00;102004.44;5121614;27;19923;-70
2022/04/02 08:21:34;;;;;;;;;;;;;;;4.78;100.00;102011.44;5111140;28;20371;-70
2022/04/02 08:24:01;;;;;;;;;;;;;;;4.63;100.00;102017.56;5133292;27;19950;-70
2022/04/02 08:26:45;;;;;;;;;;;;;;;4.27;100.00;102008.81;5102747;27;19928;-70
2022/04/02 08:29:29;;;;;;;;;;;;;;;4.38;100.00;102013.19;5134666;27;19919;-70
2022/04/02 08:31:56;;;;;;;;;;;;;;;4.50;100.00;102018.47;5108603;28;19977;-70
2022/04/02 08:34:40;;;;;;;;;;;;;;;4.33;100.00;102014.06;5132371;27;20348;-69
2022/04/02 08:37:06;;;;;;;;;;;;;;;4.46;100.00;102018.44;5104626;28;20422;-70
2022/04/02 08:39:36;;;;;;;;;;;;;;;4.37;100.00;102021.06;5098699;28;20003;-70
2022/04/02 08:42:01;;;;;;;;;;;;;;;4.62;100.00;102015.84;5117210;28;19916;-70
2022/04/02 08:44:41;;;;;;;;;;;;;;;4.66;100.00;102020.19;5127527;27;19946;-70
2022/04/02 08:47:25;;;;;;;;;;;;;;;4.55;100.00;102031.63;5115468;27;20346;-70
2022/04/02 08:50:02;;;;;;;;;;;;;;;4.78;100.00;102031.59;5122342;27;19934;-70
2022/04/02 08:52:47;;;;;;;;;;;;;;;4.93;100.00;102032.50;5136531;27;19925;-69
2022/04/02 08:55:14;;;;;;;;;;;;;;;4.69;100.00;102043.03;5132640;27;19919;-70
2022/04/02 08:57:42;;;;;;;;;;;;;;;4.73;100.00;102036.88;5136850;27;19919;-70
2022/04/02 09:00:15;;;;;;;;;;;;;;;4.95;100.00;102038.63;5116368;27;19924;-70
2022/04/02 09:02:43;;;;;;;;;;;;;;;5.01;100.00;102045.66;5115419;27;19915;-70
2022/04/02 09:05:09;;;;;;;;;;;;;;;5.56;100.00;102040.25;5132891;27;19919;-69
2022/04/02 09:07:53;;;;;;;;;;;;;;;5.93;100.00;102047.19;5128191;27;20074;-70
2022/04/02 09:10:28;;;;;;;;;;;;;;;6.83;100.00;102060.66;5136104;27;20018;-70
2022/04/02 09:13:09;;;;;;;;;;;;;;;7.07;100.00;102041.97;5136003;27;19926;-70
2022/04/02 09:15:54;;;;;;;;;;;;;;;7.55;100.00;102044.09;5115154;27;19970;-70
2022/04/02 09:18:35;;;;;;;;;;;;;;;7.33;100.00;102047.88;5117127;27;19915;-70
2022/04/02 09:21:01;;;;;;;;;;;;;;;6.81;100.00;102047.47;5115319;27;19925;-70
2022/04/02 09:23:29;;;;;;;;;;;;;;;6.61;100.00;102057.31;5115255;27;19955;-73
2022/04/02 09:25:57;;;;;;;;;;;;;;;7.42;100.00;102053.94;5111413;27;20270;-71
2022/04/02 09:28:52;;;;;;;;;;;;;;;8.51;100.00;102052.59;5118277;27;19922;-70
2022/04/02 09:31:34;;;;;;;;;;;;;;;8.09;100.00;102048.72;5043130;28;19932;-70
2022/04/02 09:34:08;;;;;;;;;;;;;;;7.76;100.00;102057.97;5098031;28;19927;-71
2022/04/02 09:36:46;;;;;;;;;;;;;;;7.43;100.00;102057.47;5128158;27;19994;-74
2022/04/02 09:39:21;;;;;;;;;;;;;;;6.88;100.00;102056.22;5131311;27;19926;-70
2022/04/02 09:41:56;;;;;;;;;;;;;;;6.88;100.00;102056.22;5124233;27;19960;-70
2022/04/02 09:44:29;;;;;;;;;;;;;;;7.45;100.00;102059.19;5136681;27;19919;-71
2022/04/02 09:47:03;;;;;;;;;;;;;;;7.66;100.00;102066.00;5117839;27;19916;-70
2022/04/02 09:49:28;;;;;;;;;;;;;;;6.87;100.00;102059.78;5119044;27;19927;-72
2022/04/02 09:52:02;;;;;;;;;;;;;;;6.18;100.00;102055.81;5120638;27;19920;-70
2022/04/02 09:54:38;;;;;;;;;;;;;;;6.01;100.00;102058.56;5127043;27;19936;-70
2022/04/02 09:57:09;;;;;;;;;;;;;;;5.70;100.00;102058.66;5113005;27;19920;-70
2022/04/02 09:59:34;;;;;;;;;;;;;;;5.60;100.00;102065.72;5114091;27;20408;-70
2022/04/02 10:02:04;;;;;;;;;;;;;;;5.82;100.00;102071.81;5116828;27;19915;-69
2022/04/02 10:04:30;;;;;;;;;;;;;;;5.33;100.00;102059.63;5127617;27;19926;-69
2022/04/02 10:06:56;;;;;;;;;;;;;;;5.28;100.00;102062.28;5119580;27;19920;-70
2022/04/02 10:09:22;;;;;;;;;;;;;;;5.58;100.00;102077.13;5117338;27;20036;-70
2022/04/02 10:11:53;;;;;;;;;;;;;;;5.79;100.00;102066.53;5127627;27;20010;-69
2022/04/02 10:14:19;;;;;;;;;;;;;;;5.70;100.00;102058.66;5109261;28;20464;-70
2022/04/02 10:16:48;;;;;;;;;;;;;;;5.49;100.00;102056.97;5117886;27;19968;-70
2022/04/02 10:19:14;;;;;;;;;;;;;;;5.81;100.00;102060.38;5117846;27;19915;-69
2022/04/02 10:24:49;;;;;;;;;;;;;;;6.68;100.00;102052.88;5135917;27;19918;-70
2022/04/02 10:27:54;;;;;;;;;;;;;;;8.36;100.00;102043.09;5135408;27;19916;-69
2022/04/02 10:33:34;;;;;;;;;;;;;;;10.62;100.00;102062.63;5114959;28;19923;-69
2022/04/02 10:39:02;;;;;;;;;;;;;;;10.74;100.00;102067.66;5115179;28;19965;-70
2022/04/02 10:41:28;;;;;;;;;;;;;;;11.17;100.00;102075.44;5127013;27;19923;-69
2022/04/02 10:44:10;;;;;;;;;;;;;;;10.53;100.00;102061.06;5135189;27;20255;-69
2022/04/02 10:46:38;;;;;;;;;;;;;;;9.47;100.00;102073.91;5112589;27;19981;-71
2022/04/02 10:49:05;;;;;;;;;;;;;;;9.23;100.00;102075.22;5122563;27;19920;-70
2022/04/02 10:51:31;;;;;;;;;;;;;;;9.23;100.00;102075.22;5127488;27;19922;-70
2022/04/02 10:54:01;;;;;;;;;;;;;;;8.85;100.00;102073.22;5114760;27;20373;-69
2022/04/02 10:56:31;;;;;;;;;;;;;;;8.64;100.00;102076.19;5112253;27;19980;-69
2022/04/02 10:58:58;;;;;;;;;;;;;;;9.92;100.00;102073.00;5134911;27;19967;-69
2022/04/02 11:01:24;;;;;;;;;;;;;;;12.97;100.00;102067.41;5134978;27;19960;-70
2022/04/02 11:03:56;;;;;;;;;;;;;;;11.06;100.00;102078.38;5127839;27;19920;-70
2022/04/02 11:09:24;;;;;;;;;;;;;;;11.43;100.00;102089.81;5135303;27;20434;-69
2022/04/02 11:11:51;;;;;;;;;;;;;;;11.51;100.00;102092.25;5135460;27;19923;-69
2022/04/02 11:14:20;;;;;;;;;;;;;;;10.38;100.00;102087.09;5136852;27;19947;-69
2022/04/02 11:16:45;;;;;;;;;;;;;;;10.15;100.00;102076.94;5139502;27;19972;-69
2022/04/02 11:22:07;;;;;;;;;;;;;;;9.39;100.00;102076.72;5136451;27;19930;-69
2022/04/02 11:24:47;;;;;;;;;;;;;;;9.82;100.00;102076.72;5129482;27;19998;-69
2022/04/02 11:27:16;;;;;;;;;;;;;;;11.56;100.00;102085.03;5103065;27;19920;-69
2022/04/02 11:29:44;;;;;;;;;;;;;;;11.71;100.00;102093.50;5122549;27;19920;-69
2022/04/02 11:32:10;;;;;;;;;;;;;;;10.74;100.00;102094.22;5114260;28;20397;-69
2022/04/02 11:37:45;;;;;;;;;;;;;;;12.38;100.00;102079.97;5134540;28;19964;-69
2022/04/02 11:40:14;;;;;;;;;;;;;;;11.75;100.00;102087.19;5134415;27;19915;-69
2022/04/02 11:42:45;;;;;;;;;;;;;;;11.35;100.00;102089.13;5129401;28;20330;-68
2022/04/02 11:45:16;;;;;;;;;;;;;;;12.23;100.00;102077.78;5111221;28;19926;-68
2022/04/02 11:47:46;;;;;;;;;;;;;;;13.27;100.00;102085.09;5127735;28;19916;-69
2022/04/02 11:50:12;;;;;;;;;;;;;;;14.80;100.00;102093.63;5109460;28;20009;-69
2022/04/02 11:52:48;;;;;;;;;;;;;;;11.96;100.00;102093.69;5113266;28;20297;-69
2022/04/02 11:55:13;;;;;;;;;;;;;;;11.20;100.00;102091.31;5134206;28;19916;-69
2022/04/02 11:57:55;;;;;;;;;;;;;;;9.58;100.00;102101.09;5134013;28;19925;-69
2022/04/02 12:00:24;;;;;;;;;;;;;;;12.19;100.00;102069.94;5124762;28;19942;-69
2022/04/02 12:02:51;;;;;;;;;;;;;;;12.93;100.00;102102.25;5134212;28;20259;-69
2022/04/02 12:05:16;;;;;;;;;;;;;;;14.56;100.00;102098.13;5129585;28;19924;-68
2022/04/02 12:07:45;;;;;;;;;;;;;;;16.53;100.00;102099.38;5127067;28;19920;-69
2022/04/02 12:10:14;;;;;;;;;;;;;;;16.50;91.44;102095.03;5109084;28;19916;-69
2022/04/02 12:12:43;;;;;;;;;;;;;;;17.61;79.83;102093.94;5112542;28;20397;-69
2022/04/02 12:15:09;;;;;;;;;;;;;;;19.87;67.33;102105.19;5113754;28;19920;-71
2022/04/02 12:17:36;;;;;;;;;;;;;;;18.26;72.86;102101.19;5095738;28;19916;-69
2022/04/02 12:20:02;;;;;;;;;;;;;;;19.81;63.65;102102.88;5113436;28;19924;-69
2022/04/02 12:22:34;;;;;;;;;;;;;;;18.22;70.22;102084.34;5114010;28;19920;-69
2022/04/02 12:25:04;;;;;;;;;;;;;;;18.48;73.50;102088.31;5113987;28;20375;-69
2022/04/02 12:27:33;;;;;;;;;;;;;;;19.04;69.54;102087.78;5122700;28;19953;-69
2022/04/02 12:29:59;;;;;;;;;;;;;;;16.71;73.58;102090.44;5117602;27;19923;-68
2022/04/02 12:32:44;;;;;;;;;;;;;;;16.55;69.09;102100.16;5118424;27;20018;-68
2022/04/02 12:35:26;;;;;;;;;;;;;;;17.62;74.37;102089.41;5108406;27;19916;-68
2022/04/02 12:37:56;;;;;;;;;;;;;;;16.99;65.46;102098.03;5135076;27;20393;-69
2022/04/02 12:40:22;;;;;;;;;;;;;;;16.95;69.02;102101.81;5107583;27;20726;-69
2022/04/02 12:43:01;;;;;;;;;;;;;;;17.04;64.85;102099.53;5119371;27;19922;-69
2022/04/02 12:45:27;;;;;;;;;;;;;;;18.79;61.15;102096.41;5119144;27;20344;-69
2022/04/02 12:47:58;;;;;;;;;;;;;;;18.87;56.50;102104.03;5126127;27;19926;-70
2022/04/02 12:50:24;;;;;;;;;;;;;;;18.46;60.87;102097.41;5119036;27;19919;-69
2022/04/02 12:52:52;;;;;;;;;;;;;;;21.30;54.59;102092.34;5136538;27;19922;-69
2022/04/02 12:55:24;;;;;;;;;;;;;;;21.62;46.94;102101.84;5136811;27;19915;-69
2022/04/02 12:57:57;;;;;;;;;;;;;;;20.88;51.18;102096.91;5130815;27;19922;-70
2022/04/02 13:00:43;;;;;;;;;;;;;;;19.81;52.22;102105.59;5115719;27;19952;-70